Time;durP1;ratioP1;P1;durP2;ratioP2;P2;SDS_P1;SDS_P2;PMS_P1;PMS_P2;Temp;Humidity;BMP_temperature;BMP_pressure;BME280_temperature;BME280_humidity;BME280_pressure;Samples;Min_cycle;Max_cycle;Signal;HPM_P1;HPM_P2
2022/01/22 00:02:05;;;;;;;730.33;684.93;;;4.60;99.90;;;;;;5008796;28;20470;-82
2022/01/22 00:04:32;;;;;;;729.50;685.37;;;4.60;99.90;;;;;;5008604;28;20453;-82
2022/01/22 00:07:02;;;;;;;729.87;684.80;;;4.50;99.90;;;;;;5008589;28;20468;-85
2022/01/22 00:09:35;;;;;;;727.20;682.63;;;4.60;99.90;;;;;;5008299;28;20494;-82
2022/01/22 00:12:03;;;;;;;725.67;683.30;;;4.60;99.90;;;;;;5007234;28;20827;-83
2022/01/22 00:14:30;;;;;;;735.07;689.83;;;4.60;99.90;;;;;;5008473;28;20491;-85
2022/01/22 00:16:59;;;;;;;727.80;683.10;;;4.70;99.90;;;;;;5008994;28;20457;-82
2022/01/22 00:19:28;;;;;;;729.83;685.40;;;4.60;99.90;;;;;;5008264;28;20481;-85
2022/01/22 00:21:55;;;;;;;738.20;692.97;;;4.50;99.90;;;;;;5008711;28;20450;-84
2022/01/22 00:24:22;;;;;;;737.43;693.03;;;4.50;99.90;;;;;;5008668;28;20462;-85
2022/01/22 00:26:49;;;;;;;737.70;693.50;;;4.60;99.90;;;;;;5008784;28;20552;-83
2022/01/22 00:29:17;;;;;;;734.97;692.17;;;4.50;99.90;;;;;;5006510;28;20485;-82
2022/01/22 00:31:43;;;;;;;745.50;700.90;;;4.60;99.90;;;;;;5009894;28;20477;-81
2022/01/22 00:34:10;;;;;;;737.03;692.43;;;4.60;99.90;;;;;;5010467;28;20520;-82
2022/01/22 00:36:39;;;;;;;750.30;705.23;;;4.60;99.90;;;;;;5009816;28;20454;-85
2022/01/22 00:39:06;;;;;;;745.83;699.87;;;4.70;99.90;;;;;;5008917;28;20482;-82
2022/01/22 00:41:33;;;;;;;741.47;696.47;;;4.60;99.90;;;;;;5008748;28;20832;-85
2022/01/22 00:44:00;;;;;;;741.30;696.60;;;4.60;99.90;;;;;;5009861;28;20452;-82
2022/01/22 00:46:27;;;;;;;743.03;698.03;;;4.60;99.90;;;;;;5010528;28;20466;-81
2022/01/22 00:48:54;;;;;;;725.10;684.63;;;4.50;99.90;;;;;;5009444;28;20476;-84
2022/01/22 00:51:21;;;;;;;734.73;693.33;;;4.50;99.90;;;;;;5009225;28;20453;-82
2022/01/22 00:53:49;;;;;;;725.83;685.93;;;4.50;99.90;;;;;;5010365;28;20492;-85
2022/01/22 00:56:16;;;;;;;742.30;697.23;;;4.60;99.90;;;;;;5010013;28;20458;-83
2022/01/22 00:58:43;;;;;;;747.27;701.83;;;4.60;99.90;;;;;;5009065;28;20542;-83
2022/01/22 01:01:10;;;;;;;744.93;699.80;;;4.60;99.90;;;;;;5009312;28;20544;-81
2022/01/22 01:03:36;;;;;;;747.80;702.77;;;4.60;99.90;;;;;;5009213;28;20455;-82
2022/01/22 01:06:05;;;;;;;746.10;699.90;;;4.50;99.90;;;;;;5007440;28;20977;-82
2022/01/22 01:08:34;;;;;;;754.53;707.07;;;4.40;99.90;;;;;;5006548;28;20472;-82
2022/01/22 01:11:04;;;;;;;755.07;706.10;;;4.50;99.90;;;;;;5007834;28;20462;-84
2022/01/22 01:13:36;;;;;;;769.10;716.90;;;4.40;99.90;;;;;;5007254;28;20474;-82
2022/01/22 01:16:15;;;;;;;735.00;684.30;;;4.40;99.90;;;;;;5008595;28;20454;-82
2022/01/22 01:32:32;;;;;;;743.70;681.47;;;4.10;99.90;;;;;;5007303;28;20436;-82
2022/01/22 01:35:00;;;;;;;740.77;677.90;;;4.20;99.90;;;;;;5008839;28;20560;-81
2022/01/22 01:37:27;;;;;;;734.53;668.77;;;4.20;99.90;;;;;;5007527;28;21017;-85
2022/01/22 01:39:59;;;;;;;740.03;675.67;;;4.20;99.90;;;;;;5006513;28;20481;-81
2022/01/22 01:42:35;;;;;;;740.30;674.80;;;4.10;99.90;;;;;;5007131;28;20835;-85
2022/01/22 01:45:04;;;;;;;746.37;677.97;;;4.20;99.90;;;;;;5007115;28;20473;-82
2022/01/22 01:47:31;;;;;;;740.40;674.00;;;4.20;99.90;;;;;;5007643;28;20456;-85
2022/01/22 01:49:58;;;;;;;746.53;681.13;;;4.20;99.90;;;;;;5006572;28;20482;-82
2022/01/22 01:52:34;;;;;;;747.47;679.60;;;4.20;99.90;;;;;;5007143;28;20458;-83
2022/01/22 01:55:04;;;;;;;761.07;692.30;;;4.20;99.90;;;;;;5007309;28;20485;-81
2022/01/22 01:57:38;;;;;;;745.17;679.37;;;4.20;99.90;;;;;;5007097;28;20746;-82
2022/01/22 02:00:13;;;;;;;752.03;683.77;;;4.30;99.90;;;;;;5005998;28;20517;-82
2022/01/22 02:02:40;;;;;;;754.80;684.23;;;4.10;99.90;;;;;;5007801;28;20459;-84
2022/01/22 02:05:10;;;;;;;748.33;677.23;;;4.30;99.90;;;;;;5007264;28;20450;-82
2022/01/22 02:07:39;;;;;;;750.47;679.50;;;4.20;99.90;;;;;;5006101;28;20469;-82
2022/01/22 02:10:08;;;;;;;746.17;675.40;;;4.30;99.90;;;;;;5006546;28;20490;-85
2022/01/22 02:13:00;;;;;;;749.93;679.13;;;4.30;99.90;;;;;;5006786;28;20482;-82
2022/01/22 02:23:48;;;;;;;785.97;714.87;;;4.30;99.90;;;;;;5006563;28;20525;-82
2022/01/22 02:26:16;;;;;;;759.20;685.43;;;4.20;99.90;;;;;;5006369;28;20450;-81
2022/01/22 02:28:47;;;;;;;746.40;676.10;;;4.20;99.90;;;;;;5004656;28;20472;-81
2022/01/22 02:31:21;;;;;;;758.17;686.83;;;4.30;99.90;;;;;;5006026;28;20458;-82
2022/01/22 02:33:55;;;;;;;760.07;689.17;;;4.40;99.90;;;;;;5005771;28;21024;-83
2022/01/22 02:36:27;;;;;;;765.47;692.13;;;4.30;99.90;;;;;;5006719;28;20468;-83
2022/01/22 02:39:00;;;;;;;750.80;679.67;;;4.30;99.90;;;;;;5006264;28;20541;-82
2022/01/22 02:41:27;;;;;;;758.33;687.63;;;4.30;99.90;;;;;;5006422;28;20458;-82
2022/01/22 02:43:55;;;;;;;764.47;691.57;;;4.30;99.90;;;;;;5006692;28;20447;-84
2022/01/22 02:46:24;;;;;;;759.37;687.97;;;4.30;99.90;;;;;;5006046;28;20886;-84
2022/01/22 02:48:52;;;;;;;745.40;674.93;;;4.40;99.90;;;;;;5006158;28;20478;-82
2022/01/22 02:51:19;;;;;;;756.13;682.60;;;4.40;99.90;;;;;;5007012;28;20455;-84
2022/01/22 02:53:49;;;;;;;748.23;677.30;;;4.40;99.90;;;;;;5006963;28;20489;-82
2022/01/22 02:56:16;;;;;;;745.97;676.20;;;4.30;99.90;;;;;;5007732;28;20460;-82
2022/01/22 02:58:42;;;;;;;796.10;724.70;;;4.50;99.90;;;;;;5007466;28;20470;-84
2022/01/22 03:01:09;;;;;;;762.90;690.97;;;4.30;99.90;;;;;;5008243;28;20450;-82
2022/01/22 03:03:38;;;;;;;764.77;693.77;;;4.40;99.90;;;;;;5011455;28;21038;-81
2022/01/22 03:06:05;;;;;;;765.07;693.97;;;4.40;99.90;;;;;;5010205;28;20454;-81
2022/01/22 03:08:33;;;;;;;758.50;690.10;;;4.40;99.90;;;;;;5010895;28;20465;-80
2022/01/22 03:11:05;;;;;;;757.10;689.00;;;4.50;99.90;;;;;;5010206;28;20445;-80
2022/01/22 03:16:32;;;;;;;760.37;692.70;;;4.40;99.90;;;;;;5010193;28;20437;-81
2022/01/22 03:19:05;;;;;;;760.60;695.20;;;4.50;99.90;;;;;;5009026;28;20477;-81
2022/01/22 03:21:44;;;;;;;764.07;697.33;;;4.40;99.90;;;;;;5009266;28;20461;-80
2022/01/22 03:27:22;;;;;;;766.87;701.53;;;4.60;99.90;;;;;;5009270;28;20441;-80
2022/01/22 03:29:50;;;;;;;785.30;718.83;;;4.50;99.90;;;;;;5008424;28;20497;-80
2022/01/22 03:32:18;;;;;;;775.67;709.87;;;4.60;99.90;;;;;;5009657;28;20454;-80
2022/01/22 03:34:55;;;;;;;771.90;708.53;;;4.50;99.90;;;;;;5009166;28;20512;-80
2022/01/22 03:37:22;;;;;;;780.50;716.60;;;4.60;99.90;;;;;;5009176;28;20478;-81
2022/01/22 03:39:49;;;;;;;778.30;714.70;;;4.50;99.90;;;;;;5009165;28;20677;-80
2022/01/22 03:42:17;;;;;;;776.23;713.03;;;4.60;99.90;;;;;;5009507;28;20473;-80
2022/01/22 03:44:44;;;;;;;788.13;724.07;;;4.50;99.90;;;;;;5008647;28;20951;-81
2022/01/22 03:47:11;;;;;;;781.93;718.37;;;4.50;99.90;;;;;;5007988;28;20465;-80
2022/01/22 03:49:38;;;;;;;782.00;717.37;;;4.50;99.90;;;;;;5010682;28;20480;-80
2022/01/22 03:52:05;;;;;;;778.63;714.27;;;4.60;99.90;;;;;;5008668;28;20758;-80
2022/01/22 03:54:32;;;;;;;778.50;714.60;;;4.50;99.90;;;;;;5008217;28;20521;-80
2022/01/22 03:56:59;;;;;;;781.03;717.93;;;4.50;99.90;;;;;;5009789;28;20462;-80
2022/01/22 03:59:30;;;;;;;783.33;720.00;;;4.60;99.90;;;;;;5008084;28;20545;-81
2022/01/22 04:04:47;;;;;;;784.50;722.73;;;4.60;99.90;;;;;;5009455;28;20458;-80
2022/01/22 04:10:12;;;;;;;790.53;728.60;;;4.70;99.90;;;;;;5007912;28;20472;-81
2022/01/22 04:12:47;;;;;;;792.77;730.17;;;4.80;99.90;;;;;;5009235;28;20453;-80
2022/01/22 04:15:19;;;;;;;796.07;733.90;;;4.60;99.90;;;;;;5009189;28;20484;-80
2022/01/22 04:26:26;;;;;;;793.67;733.07;;;4.80;99.90;;;;;;5008574;28;20465;-81
2022/01/22 04:28:53;;;;;;;789.30;728.13;;;4.70;99.90;;;;;;5007622;28;20478;-81
2022/01/22 04:31:21;;;;;;;791.40;729.83;;;4.70;99.90;;;;;;5010207;28;20456;-81
2022/01/22 04:33:48;;;;;;;793.57;731.73;;;4.70;99.90;;;;;;5008803;28;20480;-80
2022/01/22 04:36:15;;;;;;;793.00;730.80;;;4.70;99.90;;;;;;5009606;28;20722;-81
2022/01/22 04:38:42;;;;;;;793.80;731.37;;;4.70;99.90;;;;;;5009163;28;20477;-81
2022/01/22 04:41:08;;;;;;;798.60;736.70;;;4.70;99.90;;;;;;5008931;28;20458;-81
2022/01/22 04:43:39;;;;;;;794.10;731.90;;;4.70;99.90;;;;;;5009350;28;20450;-81
2022/01/22 04:46:17;;;;;;;793.17;730.70;;;4.80;99.90;;;;;;5009484;28;20485;-80
2022/01/22 04:48:53;;;;;;;789.37;727.03;;;4.80;99.90;;;;;;5007635;28;20484;-80
2022/01/22 04:56:50;;;;;;;796.80;734.03;;;4.70;99.90;;;;;;5010486;28;20469;-80
2022/01/22 04:59:17;;;;;;;795.83;733.83;;;4.70;99.90;;;;;;5010211;28;20470;-80
2022/01/22 05:01:44;;;;;;;793.50;730.90;;;4.80;99.90;;;;;;5009760;28;20458;-80
2022/01/22 05:04:12;;;;;;;795.37;731.77;;;4.80;99.90;;;;;;5010405;28;20453;-80
2022/01/22 05:06:39;;;;;;;799.27;736.50;;;4.80;99.90;;;;;;5009785;28;20457;-81
2022/01/22 05:09:06;;;;;;;792.90;730.23;;;4.80;99.90;;;;;;5007479;28;20481;-80
2022/01/22 05:11:33;;;;;;;790.37;726.40;;;4.80;99.90;;;;;;5006812;28;21046;-81
2022/01/22 05:13:59;;;;;;;794.43;730.03;;;4.80;99.90;;;;;;5009538;28;20478;-81
2022/01/22 05:16:26;;;;;;;795.40;731.10;;;4.80;99.90;;;;;;5009271;28;20465;-81
2022/01/22 05:18:58;;;;;;;791.80;728.10;;;4.80;99.90;;;;;;5009064;28;20657;-80
2022/01/22 05:21:28;;;;;;;796.03;731.13;;;4.80;99.90;;;;;;5007911;28;20458;-81
2022/01/22 05:23:58;;;;;;;793.20;729.50;;;4.80;99.90;;;;;;5008954;28;20466;-80
2022/01/22 05:26:50;;;;;;;803.37;739.30;;;4.80;99.90;;;;;;5009873;28;20442;-80
2022/01/22 05:29:25;;;;;;;803.33;739.13;;;4.80;99.90;;;;;;5008069;28;20548;-80
2022/01/22 05:32:20;;;;;;;804.60;739.47;;;4.80;99.90;;;;;;5008551;28;20537;-80
2022/01/22 05:37:33;;;;;;;793.53;729.87;;;4.90;99.90;;;;;;5006839;28;20518;-81
2022/01/22 05:40:00;;;;;;;795.70;730.70;;;4.90;99.90;;;;;;5007755;28;20481;-80
2022/01/22 05:42:27;;;;;;;802.57;736.70;;;4.80;99.90;;;;;;5009701;28;20549;-80
2022/01/22 05:44:54;;;;;;;802.77;737.27;;;4.90;99.90;;;;;;5008370;28;20454;-80
2022/01/22 05:47:24;;;;;;;795.90;730.60;;;4.90;99.90;;;;;;5007654;28;20462;-80
2022/01/22 05:49:51;;;;;;;793.00;729.20;;;4.90;99.90;;;;;;5006353;28;20513;-80
2022/01/22 05:52:25;;;;;;;810.00;745.73;;;5.00;99.90;;;;;;5006693;28;20467;-80
2022/01/22 06:00:21;;;;;;;795.73;730.73;;;4.90;99.90;;;;;;5004710;28;20441;-80
2022/01/22 06:02:48;;;;;;;802.40;737.77;;;4.90;99.90;;;;;;4999989;28;20450;-81
2022/01/22 06:05:14;;;;;;;801.80;736.60;;;4.90;99.90;;;;;;5000592;28;20446;-81
2022/01/22 06:07:41;;;;;;;807.77;742.30;;;5.00;99.90;;;;;;5003202;28;20450;-81
2022/01/22 06:10:17;;;;;;;812.70;746.50;;;5.00;99.90;;;;;;5000538;28;20466;-80
2022/01/22 06:12:57;;;;;;;805.47;739.17;;;4.90;99.90;;;;;;4999644;28;20458;-81
2022/01/22 06:15:24;;;;;;;803.27;737.07;;;5.00;99.90;;;;;;5002584;28;20470;-81
2022/01/22 06:17:51;;;;;;;809.43;743.93;;;5.00;99.90;;;;;;4998936;28;20450;-80
2022/01/22 06:20:18;;;;;;;805.73;739.00;;;4.90;99.90;;;;;;4999859;28;20457;-80
2022/01/22 06:22:44;;;;;;;804.17;737.37;;;5.00;99.90;;;;;;5001468;28;20459;-81
2022/01/22 06:25:13;;;;;;;807.80;739.83;;;5.00;99.90;;;;;;5006241;28;20470;-81
2022/01/22 06:27:39;;;;;;;803.23;737.50;;;5.00;99.90;;;;;;5008554;28;20525;-79
2022/01/22 06:30:10;;;;;;;801.87;736.87;;;5.00;99.90;;;;;;5008329;28;20482;-80
2022/01/22 06:32:39;;;;;;;811.53;745.33;;;5.00;99.90;;;;;;5004700;28;20454;-80
2022/01/22 06:35:16;;;;;;;818.80;752.83;;;5.00;99.90;;;;;;5005909;28;20506;-80
2022/01/22 06:37:43;;;;;;;806.57;739.67;;;5.10;99.90;;;;;;5006277;28;20453;-81
2022/01/22 06:42:59;;;;;;;800.50;733.30;;;5.00;99.90;;;;;;5003563;28;20449;-80
2022/01/22 06:45:26;;;;;;;802.27;734.77;;;5.10;99.90;;;;;;5005518;28;20530;-81
2022/01/22 06:47:54;;;;;;;814.73;747.53;;;5.00;99.90;;;;;;5004186;28;20454;-79
2022/01/22 06:50:22;;;;;;;811.67;744.90;;;5.10;99.90;;;;;;5003115;28;20530;-80
2022/01/22 06:52:55;;;;;;;815.10;747.83;;;5.10;99.90;;;;;;5004994;28;20461;-80
2022/01/22 06:55:34;;;;;;;806.87;739.57;;;5.10;99.90;;;;;;5007513;28;20470;-80
2022/01/22 06:58:01;;;;;;;797.53;731.67;;;5.20;99.90;;;;;;5007268;28;20492;-78
2022/01/22 07:00:28;;;;;;;805.00;738.90;;;5.20;99.90;;;;;;5006595;28;20549;-80
2022/01/22 07:02:55;;;;;;;810.93;744.57;;;5.10;99.90;;;;;;5006661;28;20902;-80
2022/01/22 07:05:22;;;;;;;809.07;742.97;;;5.00;99.90;;;;;;5007081;28;20481;-80
2022/01/22 07:07:49;;;;;;;815.20;749.60;;;5.00;99.90;;;;;;5004465;28;20915;-81
2022/01/22 07:10:18;;;;;;;803.83;738.13;;;5.20;99.90;;;;;;5005838;28;20468;-81
2022/01/22 07:12:46;;;;;;;816.07;749.17;;;5.20;99.90;;;;;;5005264;28;20813;-80
2022/01/22 07:15:13;;;;;;;804.33;737.37;;;5.20;99.90;;;;;;5005003;28;20541;-80
2022/01/22 07:17:40;;;;;;;800.87;736.57;;;5.10;99.90;;;;;;5003820;28;20468;-80
2022/01/22 07:20:13;;;;;;;812.30;747.00;;;5.10;99.90;;;;;;5004320;28;20471;-80
2022/01/22 07:22:50;;;;;;;805.20;739.47;;;5.10;99.90;;;;;;5008286;28;20518;-80
2022/01/22 07:25:18;;;;;;;820.43;754.83;;;5.10;99.90;;;;;;5006704;28;20535;-81
2022/01/22 07:28:25;;;;;;;817.97;749.53;;;5.10;99.90;;;;;;5001598;28;20454;-83
2022/01/22 07:31:39;;;;;;;814.60;745.87;;;5.00;99.90;;;;;;4925204;29;20913;-83
2022/01/22 07:51:22;;;;;;;753.20;686.20;;;5.10;99.90;;;;;;5004105;28;20545;-83
2022/01/22 08:04:51;;;;;;;785.60;714.97;;;5.10;99.90;;;;;;5004383;28;20454;-80
2022/01/22 08:07:25;;;;;;;781.50;712.10;;;5.20;99.90;;;;;;5009891;28;20467;-80
2022/01/22 08:10:14;;;;;;;800.37;731.47;;;5.20;99.90;;;;;;5011458;28;20478;-80
2022/01/22 08:12:55;;;;;;;776.80;707.03;;;5.20;99.90;;;;;;5010442;28;20454;-80
2022/01/22 09:01:10;;;;;;;809.20;735.20;;;5.50;99.90;;;;;;6088605;23;20414;-82
2022/01/22 09:10:52;;;;;;;821.10;745.03;;;5.70;99.90;;;;;;5979180;23;20472;-81
2022/01/22 09:27:07;;;;;;;791.80;724.07;;;5.90;99.90;;;;;;6094927;23;20479;-81
2022/01/22 09:36:08;;;;;;;792.40;726.07;;;5.90;99.90;;;;;;6018679;23;20426;-81
2022/01/22 10:00:05;;;;;;;;;;;;;;;;;;;;;
2022/01/22 10:40:29;;;;;;;;;;;;;;;;;;;;;
2022/01/22 10:54:04;;;;;;;729.27;663.43;;;6.50;99.90;;;;;;6021784;23;20486;-81
2022/01/22 10:56:53;;;;;;;;;;;;;;;;;;;;;
2022/01/22 11:00:05;;;;;;;748.37;684.77;;;6.70;99.90;;;;;;6115396;23;20968;-81
2022/01/22 11:09:11;;;;;;;777.20;714.90;;;7.00;99.90;;;;;;6136610;23;20466;-81
2022/01/22 11:12:24;;;;;;;;;;;;;;;;;;;;;
2022/01/22 11:17:42;;;;;;;793.97;739.27;;;7.30;99.90;;;;;;6140630;23;20533;-81
2022/01/22 11:20:18;;;;;;;795.58;739.78;;;7.20;99.90;;;;;;6174656;23;20416;-80
2022/01/22 11:22:49;;;;;;;788.47;731.87;;;7.10;99.90;;;;;;6173890;23;20165;-81
2022/01/22 11:25:38;;;;;;;;;;;;;;;;;;;;;
2022/01/22 11:31:45;;;;;;;;;;;;;;;;;;;;;
2022/01/22 11:34:31;;;;;;;792.50;731.93;;;6.60;99.90;;;;;;6171887;23;20410;-80
2022/01/22 11:40:38;;;;;;;775.43;712.80;;;6.70;99.90;;;;;;6179008;23;20963;-81
2022/01/22 11:43:23;;;;;;;;;;;;;;;;;;;;;
2022/01/22 11:45:55;;;;;;;794.30;729.33;;;6.40;99.90;;;;;;6173329;23;20413;-80
2022/01/22 11:48:38;;;;;;;799.87;732.97;;;6.50;99.90;;;;;;6172481;23;20442;-81
2022/01/22 11:51:26;;;;;;;776.43;709.60;;;6.50;99.90;;;;;;6170839;23;20408;-81
2022/01/22 11:54:30;;;;;;;;;;;;;;;;;;;;;
2022/01/22 11:57:01;;;;;;;763.23;696.10;;;6.40;99.90;;;;;;6055377;23;20417;-80
2022/01/22 11:59:46;;;;;;;;;;;;;;;;;;;;;
2022/01/22 12:02:38;;;;;;;773.30;704.20;;;6.50;99.90;;;;;;6171881;23;20201;-81
2022/01/22 12:05:47;;;;;;;775.87;708.37;;;6.50;99.90;;;;;;6165827;23;20462;-81
2022/01/22 12:08:52;;;;;;;788.20;721.40;;;6.50;99.90;;;;;;6157813;23;20449;-81
2022/01/22 12:15:07;;;;;;;783.40;716.10;;;6.60;99.90;;;;;;6175698;23;20409;-81
2022/01/22 12:18:16;;;;;;;801.63;733.40;;;6.70;99.90;;;;;;6111642;23;20384;-81
2022/01/22 12:24:19;;;;;;;;;;;;;;;;;;;;;
2022/01/22 12:27:04;;;;;;;;;;;;;;;;;;;;;
2022/01/22 12:29:46;;;;;;;803.90;749.70;;;6.80;99.90;;;;;;6179155;23;20940;-81
2022/01/22 12:35:58;;;;;;;792.47;740.03;;;6.70;99.90;;;;;;6169792;23;20428;-81
2022/01/22 12:42:45;;;;;;;;;;;;;;;;;;;;;
2022/01/22 12:49:07;;;;;;;800.87;745.83;;;6.80;99.90;;;;;;6128635;23;20446;-82
2022/01/22 12:51:55;;;;;;;798.60;742.63;;;6.80;99.90;;;;;;6118010;23;20435;-80
2022/01/22 12:54:35;;;;;;;800.00;743.17;;;6.80;99.90;;;;;;6103891;23;20420;-80
2022/01/22 13:00:12;;;;;;;795.73;744.83;;;6.90;99.90;;;;;;6108605;23;20195;-80
2022/01/22 13:02:50;;;;;;;792.60;742.33;;;6.80;99.90;;;;;;6134234;23;20396;-80
2022/01/22 13:05:19;;;;;;;803.07;750.40;;;6.80;99.90;;;;;;6165620;23;20394;-80
2022/01/22 13:07:54;;;;;;;787.63;737.53;;;6.80;99.90;;;;;;6163915;23;20438;-79
2022/01/22 13:10:26;;;;;;;782.73;730.83;;;6.80;99.90;;;;;;6176337;23;20398;-79
2022/01/22 13:12:57;;;;;;;779.10;724.80;;;6.70;99.90;;;;;;6164791;23;20390;-79
2022/01/22 13:15:26;;;;;;;773.53;721.07;;;6.70;99.90;;;;;;6168181;23;20405;-80
2022/01/22 13:17:55;;;;;;;772.07;718.73;;;6.70;99.90;;;;;;6164473;23;20433;-79
2022/01/22 13:20:25;;;;;;;779.47;721.40;;;6.70;99.90;;;;;;6164643;23;20417;-81
2022/01/22 13:22:58;;;;;;;789.17;731.57;;;6.60;99.90;;;;;;6162914;23;20478;-80
2022/01/22 13:25:31;;;;;;;798.47;737.30;;;6.70;99.90;;;;;;6168195;23;20429;-80
2022/01/22 13:28:11;;;;;;;787.13;728.93;;;6.60;99.90;;;;;;6172136;23;20517;-80
2022/01/22 13:31:04;;;;;;;785.60;727.97;;;6.70;99.90;;;;;;6171885;23;20405;-80
2022/01/22 13:33:42;;;;;;;769.23;710.20;;;6.60;99.90;;;;;;6172121;23;20408;-80
2022/01/22 13:36:43;;;;;;;760.97;701.03;;;6.70;99.90;;;;;;6169533;23;20485;-80
2022/01/22 13:52:16;;;;;;;757.50;696.80;;;6.60;99.90;;;;;;6166913;23;20422;-81
2022/01/22 13:55:22;;;;;;;761.57;699.77;;;6.70;99.90;;;;;;5983965;23;20767;-80
2022/01/22 14:01:48;;;;;;;762.13;700.00;;;6.60;99.90;;;;;;6119425;23;20422;-82
2022/01/22 14:04:25;;;;;;;761.63;699.37;;;6.70;99.90;;;;;;6159046;23;20424;-81
2022/01/22 14:06:52;;;;;;;756.60;695.90;;;6.50;99.90;;;;;;6160844;23;20461;-81
2022/01/22 14:09:52;;;;;;;769.13;704.43;;;6.60;99.90;;;;;;6168815;23;20433;-81
2022/01/22 14:12:45;;;;;;;;;;;;;;;;;;;;;
2022/01/22 14:15:46;;;;;;;762.20;697.30;;;6.50;99.90;;;;;;6161905;23;20770;-80
2022/01/22 14:24:55;;;;;;;778.00;709.53;;;6.50;99.90;;;;;;6151443;23;20429;-80
2022/01/22 14:27:46;;;;;;;782.13;712.47;;;6.50;99.90;;;;;;6156253;23;20517;-80
2022/01/22 14:33:42;;;;;;;780.77;710.40;;;6.40;99.90;;;;;;6158204;23;20448;-81
2022/01/22 14:36:49;;;;;;;;;;;;;;;;;;;;;
2022/01/22 14:49:08;;;;;;;764.70;700.27;;;6.40;99.90;;;;;;6165318;23;20448;-80
2022/01/22 14:54:48;;;;;;;760.00;694.63;;;6.50;99.90;;;;;;6141738;23;20452;-81
2022/01/22 14:57:33;;;;;;;771.90;705.27;;;6.40;99.90;;;;;;6156127;23;20421;-80
2022/01/22 15:00:11;;;;;;;771.50;705.00;;;6.60;99.90;;;;;;6165930;23;20457;-80
2022/01/22 15:02:46;;;;;;;768.13;701.63;;;6.40;99.90;;;;;;6165968;23;20414;-80
2022/01/22 15:05:36;;;;;;;761.93;695.07;;;6.50;99.90;;;;;;6168933;23;20449;-81
2022/01/22 15:08:09;;;;;;;760.40;691.00;;;6.40;99.90;;;;;;6157161;23;20486;-82
2022/01/22 15:11:09;;;;;;;767.07;698.50;;;6.40;99.90;;;;;;6157113;23;20426;-82
2022/01/22 15:13:43;;;;;;;770.93;702.67;;;6.50;99.90;;;;;;6168532;23;20480;-82
2022/01/22 15:16:23;;;;;;;769.07;698.87;;;6.40;99.90;;;;;;6159359;23;20490;-81
2022/01/22 15:19:01;;;;;;;779.70;707.80;;;6.40;99.90;;;;;;6158106;23;20438;-82
2022/01/22 15:28:59;;;;;;;800.13;725.67;;;6.30;99.90;;;;;;6137072;23;20437;-82
2022/01/22 15:34:57;;;;;;;816.80;735.50;;;6.30;99.90;;;;;;6025307;23;20477;-83
2022/01/22 15:40:53;;;;;;;;;;;;;;;;;;;;;
2022/01/22 16:09:54;;;;;;;;;;;;;;;;;;;;;
2022/01/22 16:13:08;;;;;;;;;;;;;;;;;;;;;
2022/01/22 16:22:57;;;;;;;793.40;712.07;;;6.30;99.90;;;;;;6046620;23;20417;-83
2022/01/22 16:25:52;;;;;;;786.53;705.10;;;6.30;99.90;;;;;;6047137;23;20501;-82
2022/01/22 16:29:19;;;;;;;789.37;709.23;;;6.10;99.90;;;;;;6113676;23;20441;-83
2022/01/22 16:32:41;;;;;;;;;;;;;;;;;;;;;
2022/01/22 16:35:59;;;;;;;771.30;692.97;;;6.20;99.90;;;;;;6091625;23;20427;-84
2022/01/22 16:55:20;;;;;;;777.00;698.00;;;6.00;99.90;;;;;;6147751;23;20422;-82
2022/01/22 17:04:10;;;;;;;753.70;679.43;;;6.10;99.90;;;;;;5977232;23;20442;-82
2022/01/22 17:07:45;;;;;;;748.03;673.87;;;6.00;99.90;;;;;;6174907;23;20415;-82
2022/01/22 17:11:01;;;;;;;741.67;668.07;;;6.00;99.90;;;;;;6094220;23;20981;-84
2022/01/22 17:19:48;;;;;;;745.77;673.30;;;6.00;99.90;;;;;;6217233;23;20420;-82
2022/01/22 17:35:34;;;;;;;738.10;667.10;;;5.90;99.90;;;;;;6156517;23;20462;-83
2022/01/22 17:38:01;;;;;;;737.30;667.43;;;5.90;99.90;;;;;;6226627;23;20404;-83
2022/01/22 17:40:37;;;;;;;739.33;668.43;;;5.90;99.90;;;;;;6216229;23;20419;-83
2022/01/22 17:43:31;;;;;;;740.57;670.80;;;5.90;99.90;;;;;;6227201;23;20404;-83
2022/01/22 17:46:21;;;;;;;734.03;663.13;;;5.80;99.90;;;;;;6216790;23;20434;-83
2022/01/22 17:49:11;;;;;;;728.73;657.63;;;6.00;99.90;;;;;;6216304;23;20451;-83
2022/01/22 17:51:42;;;;;;;723.37;654.33;;;5.90;99.90;;;;;;6218142;23;20791;-83
2022/01/22 17:54:24;;;;;;;732.90;665.10;;;6.00;99.90;;;;;;6217053;23;20515;-82
2022/01/22 17:56:59;;;;;;;729.23;661.03;;;5.80;99.90;;;;;;6214482;23;20424;-83
2022/01/22 17:59:41;;;;;;;727.13;660.70;;;5.90;99.90;;;;;;6216010;23;20439;-83
2022/01/22 18:02:30;;;;;;;730.83;662.97;;;5.90;99.90;;;;;;6219185;23;20404;-83
2022/01/22 18:05:06;;;;;;;721.83;655.47;;;5.90;99.90;;;;;;6217103;23;20507;-82
2022/01/22 18:07:34;;;;;;;728.80;662.17;;;5.90;99.90;;;;;;6219109;23;20459;-83
2022/01/22 18:10:02;;;;;;;730.60;663.47;;;5.80;99.90;;;;;;6223638;23;20852;-84
2022/01/22 18:12:29;;;;;;;734.17;666.67;;;5.80;99.90;;;;;;6222503;23;20466;-83
2022/01/22 18:14:56;;;;;;;736.83;669.77;;;5.90;99.90;;;;;;6220680;23;20504;-84
2022/01/22 18:17:24;;;;;;;729.53;663.13;;;5.90;99.90;;;;;;6220983;23;20408;-83
2022/01/22 18:19:51;;;;;;;734.90;669.57;;;5.90;99.90;;;;;;6218722;23;20435;-83
2022/01/22 18:22:18;;;;;;;739.50;675.20;;;5.80;99.90;;;;;;6220119;23;20412;-83
2022/01/22 18:24:45;;;;;;;738.67;676.07;;;5.80;99.90;;;;;;6218995;23;20742;-83
2022/01/22 18:27:12;;;;;;;734.37;671.30;;;5.90;99.90;;;;;;6218199;23;20439;-83
2022/01/22 18:29:39;;;;;;;728.40;666.93;;;5.80;99.90;;;;;;6218766;23;20794;-85
2022/01/22 18:32:06;;;;;;;735.40;674.30;;;5.90;99.90;;;;;;6217989;23;20412;-83
2022/01/22 18:34:35;;;;;;;750.60;690.23;;;5.90;99.90;;;;;;6219778;23;20448;-84
2022/01/22 18:37:04;;;;;;;752.53;692.73;;;6.00;99.90;;;;;;6228404;23;20495;-83
2022/01/22 18:39:31;;;;;;;731.93;671.53;;;5.80;99.90;;;;;;6221438;23;20451;-83
2022/01/22 18:41:58;;;;;;;738.20;677.40;;;5.80;99.90;;;;;;6218870;23;20423;-83
2022/01/22 18:44:26;;;;;;;740.03;680.23;;;5.80;99.90;;;;;;6217226;23;20412;-83
2022/01/22 18:46:53;;;;;;;740.13;680.53;;;5.80;99.90;;;;;;6216846;23;20416;-83
2022/01/22 18:49:21;;;;;;;760.77;699.97;;;5.80;99.90;;;;;;6215977;23;20949;-83
2022/01/22 18:51:55;;;;;;;739.17;679.97;;;5.80;99.90;;;;;;6222818;23;20419;-82
2022/01/22 18:54:22;;;;;;;746.83;688.87;;;5.80;99.90;;;;;;6223040;23;20400;-84
2022/01/22 18:56:49;;;;;;;748.60;690.13;;;5.80;99.90;;;;;;6232347;23;20404;-83
2022/01/22 18:59:16;;;;;;;753.83;695.53;;;5.70;99.90;;;;;;6232345;23;20440;-83
2022/01/22 19:01:44;;;;;;;742.23;683.60;;;5.80;99.90;;;;;;6221901;23;20423;-83
2022/01/22 19:04:11;;;;;;;747.50;688.37;;;5.70;99.90;;;;;;6222706;23;20498;-83
2022/01/22 19:06:38;;;;;;;755.13;695.43;;;5.70;99.90;;;;;;6233480;23;20412;-82
2022/01/22 19:09:07;;;;;;;754.10;696.00;;;5.70;99.90;;;;;;6222333;23;20444;-84
2022/01/22 19:11:35;;;;;;;756.70;697.50;;;5.80;99.90;;;;;;6224065;23;20519;-83
2022/01/22 19:14:02;;;;;;;757.67;698.40;;;5.80;99.90;;;;;;6223335;23;20416;-84
2022/01/22 19:16:29;;;;;;;752.97;694.87;;;5.70;99.90;;;;;;6223615;23;21002;-83
2022/01/22 19:18:55;;;;;;;749.50;690.10;;;5.80;99.90;;;;;;6224598;23;20511;-84
2022/01/22 19:21:27;;;;;;;749.00;689.80;;;5.70;99.90;;;;;;6222889;23;20996;-84
2022/01/22 19:23:58;;;;;;;748.93;690.03;;;5.80;99.90;;;;;;6221563;23;20403;-84
2022/01/22 19:26:40;;;;;;;751.47;692.80;;;5.70;99.90;;;;;;6221778;23;20400;-82
2022/01/22 19:29:09;;;;;;;757.10;699.40;;;5.70;99.90;;;;;;6221590;23;20476;-83
2022/01/22 19:31:36;;;;;;;758.33;701.37;;;5.70;99.90;;;;;;6221007;23;20487;-82
2022/01/22 19:34:05;;;;;;;759.73;702.43;;;5.70;99.90;;;;;;6222032;23;20416;-83
2022/01/22 19:36:33;;;;;;;743.37;686.10;;;5.70;99.90;;;;;;6220825;23;20412;-84
2022/01/22 19:39:00;;;;;;;745.60;689.90;;;5.80;99.90;;;;;;6220895;23;20428;-83
2022/01/22 19:41:28;;;;;;;756.47;699.57;;;5.70;99.90;;;;;;6221018;23;20416;-84
2022/01/22 19:44:01;;;;;;;757.37;701.17;;;5.70;99.90;;;;;;6220007;23;20408;-82
2022/01/22 19:46:29;;;;;;;755.77;699.60;;;5.80;99.90;;;;;;6221795;23;20393;-83
2022/01/22 19:48:56;;;;;;;755.03;699.83;;;5.70;99.90;;;;;;6228980;23;20435;-82
2022/01/22 19:51:23;;;;;;;769.83;714.30;;;5.70;99.90;;;;;;6220618;23;20748;-82
2022/01/22 19:53:50;;;;;;;769.43;713.93;;;5.80;99.90;;;;;;6221060;23;20416;-82